Time;durP1;ratioP1;P1;durP2;ratioP2;P2;SDS_P1;SDS_P2;PMS_P1;PMS_P2;Temp;Humidity;BMP_temperature;BMP_pressure;BME280_temperature;BME280_humidity;BME280_pressure;Samples;Min_cycle;Max_cycle;Signal;HPM_P1;HPM_P2
2023/03/12 00:01:16;;;;;;;10.27;2.92;;;;;;;;;;4982983;28;20050;-69
2023/03/12 00:03:44;;;;;;;6.72;2.80;;;;;;;;;;4981968;28;20053;-68
2023/03/12 00:06:11;;;;;;;9.50;2.85;;;;;;;;;;4986390;28;20051;-68
2023/03/12 00:08:40;;;;;;;7.25;2.75;;;;;;;;;;4988952;28;20149;-68
2023/03/12 00:11:08;;;;;;;7.95;2.70;;;;;;;;;;4975904;28;20428;-68
2023/03/12 00:13:35;;;;;;;7.60;2.60;;;;;;;;;;4978530;28;20057;-68
2023/03/12 00:16:06;;;;;;;7.32;2.40;;;;;;;;;;4978555;28;20046;-68
2023/03/12 00:18:34;;;;;;;6.15;2.05;;;;;;;;;;4976494;28;20046;-68
2023/03/12 00:21:01;;;;;;;6.68;2.30;;;;;;;;;;4979428;28;20050;-68
2023/03/12 00:23:28;;;;;;;6.75;2.45;;;;;;;;;;4987580;28;20047;-69
2023/03/12 00:26:01;;;;;;;5.18;2.70;;;;;;;;;;4987576;28;20042;-69
2023/03/12 00:28:28;;;;;;;5.97;2.63;;;;;;;;;;4982413;28;20042;-69
2023/03/12 00:30:57;;;;;;;7.00;2.33;;;;;;;;;;4986295;28;20046;-68
2023/03/12 00:33:24;;;;;;;5.97;2.53;;;;;;;;;;4988720;28;20050;-69
2023/03/12 00:35:52;;;;;;;7.43;2.75;;;;;;;;;;4968929;28;20498;-68
2023/03/12 00:38:19;;;;;;;5.05;2.30;;;;;;;;;;4985483;28;20050;-68
2023/03/12 00:40:46;;;;;;;6.40;2.40;;;;;;;;;;4983487;28;20600;-68
2023/03/12 00:43:15;;;;;;;8.07;2.50;;;;;;;;;;4981499;28;20042;-68
2023/03/12 00:45:42;;;;;;;7.85;3.08;;;;;;;;;;4987420;28;20066;-69
2023/03/12 00:48:10;;;;;;;10.40;3.15;;;;;;;;;;4984125;28;20482;-68
2023/03/12 00:50:37;;;;;;;10.15;2.78;;;;;;;;;;4977338;28;20403;-69
2023/03/12 00:53:04;;;;;;;8.13;2.83;;;;;;;;;;4982261;28;20050;-68
2023/03/12 00:55:31;;;;;;;10.48;2.67;;;;;;;;;;4978225;28;20061;-68
2023/03/12 00:57:59;;;;;;;6.63;2.75;;;;;;;;;;4964859;28;20544;-68
2023/03/12 01:00:27;;;;;;;14.00;3.40;;;;;;;;;;4968724;28;20074;-68
2023/03/12 01:02:55;;;;;;;7.18;2.75;;;;;;;;;;4985950;28;20387;-68
2023/03/12 01:05:22;;;;;;;9.85;3.17;;;;;;;;;;4984556;28;20497;-68
2023/03/12 01:07:50;;;;;;;11.68;2.60;;;;;;;;;;4982762;28;20057;-70
2023/03/12 01:10:18;;;;;;;10.27;2.75;;;;;;;;;;4986214;28;20093;-69
2023/03/12 01:12:46;;;;;;;10.15;2.72;;;;;;;;;;4985313;28;20057;-69
2023/03/12 01:15:13;;;;;;;7.10;2.75;;;;;;;;;;4981692;28;20073;-69
2023/03/12 01:17:42;;;;;;;7.78;2.42;;;;;;;;;;4983336;28;20054;-69
2023/03/12 01:20:10;;;;;;;12.38;2.90;;;;;;;;;;4982054;28;20528;-68
2023/03/12 01:22:37;;;;;;;7.43;2.53;;;;;;;;;;4984312;28;20049;-69
2023/03/12 01:25:05;;;;;;;7.63;2.75;;;;;;;;;;4984135;28;20097;-69
2023/03/12 01:27:32;;;;;;;4.70;2.60;;;;;;;;;;4987047;28;20042;-69
2023/03/12 01:29:59;;;;;;;6.28;2.53;;;;;;;;;;4983256;28;20465;-68
2023/03/12 01:32:27;;;;;;;9.02;2.50;;;;;;;;;;4987016;28;20056;-68
2023/03/12 01:34:55;;;;;;;6.88;2.47;;;;;;;;;;4982517;28;20489;-68
2023/03/12 01:37:23;;;;;;;5.68;2.40;;;;;;;;;;4988445;28;20046;-68
2023/03/12 01:39:50;;;;;;;8.68;3.13;;;;;;;;;;4985879;28;20685;-68
2023/03/12 01:42:17;;;;;;;8.15;2.60;;;;;;;;;;4980793;28;20135;-69
2023/03/12 01:44:52;;;;;;;6.90;2.83;;;;;;;;;;4988485;28;20419;-69
2023/03/12 01:47:19;;;;;;;6.38;2.88;;;;;;;;;;4963943;28;20050;-68
2023/03/12 01:49:47;;;;;;;6.53;3.03;;;;;;;;;;4978879;28;20050;-68
2023/03/12 01:52:16;;;;;;;11.68;3.53;;;;;;;;;;4976696;28;20051;-68
2023/03/12 01:54:45;;;;;;;7.65;2.90;;;;;;;;;;4980474;28;20577;-68
2023/03/12 01:57:15;;;;;;;7.18;2.90;;;;;;;;;;4990215;28;20064;-69
2023/03/12 01:59:44;;;;;;;12.10;2.58;;;;;;;;;;4989939;28;20094;-68
2023/03/12 02:02:12;;;;;;;7.70;2.30;;;;;;;;;;4985636;28;20054;-68
2023/03/12 02:04:40;;;;;;;10.05;2.50;;;;;;;;;;4980613;28;20130;-68
2023/03/12 02:07:09;;;;;;;5.45;2.33;;;;;;;;;;4987467;28;20630;-68
2023/03/12 02:09:39;;;;;;;5.03;2.53;;;;;;;;;;4981936;28;20050;-68
2023/03/12 02:12:06;;;;;;;7.85;3.25;;;;;;;;;;4992840;28;20042;-68
2023/03/12 02:14:34;;;;;;;8.90;2.80;;;;;;;;;;4986101;28;20057;-69
2023/03/12 02:17:01;;;;;;;7.10;3.20;;;;;;;;;;4990256;28;20058;-68
2023/03/12 02:19:34;;;;;;;7.32;2.72;;;;;;;;;;4980773;28;20402;-68
2023/03/12 02:22:02;;;;;;;9.45;3.08;;;;;;;;;;4985096;28;20056;-69
2023/03/12 02:24:34;;;;;;;7.57;2.53;;;;;;;;;;4987189;28;20046;-69
2023/03/12 02:27:03;;;;;;;6.40;3.05;;;;;;;;;;4982088;28;20046;-68
2023/03/12 02:29:30;;;;;;;7.97;3.05;;;;;;;;;;4976336;28;20050;-68
2023/03/12 02:31:59;;;;;;;6.55;2.90;;;;;;;;;;4980546;28;20069;-68
2023/03/12 02:34:26;;;;;;;7.75;2.50;;;;;;;;;;4979530;28;20050;-68
2023/03/12 02:36:53;;;;;;;7.82;2.95;;;;;;;;;;4986139;28;20069;-68
2023/03/12 02:39:20;;;;;;;5.18;2.55;;;;;;;;;;4984414;28;20050;-69
2023/03/12 02:41:52;;;;;;;4.60;2.05;;;;;;;;;;4981982;28;20486;-68
2023/03/12 02:44:21;;;;;;;6.00;2.60;;;;;;;;;;4986439;28;20470;-69
2023/03/12 02:46:50;;;;;;;4.63;2.13;;;;;;;;;;4980252;28;20054;-68
2023/03/12 02:49:18;;;;;;;10.35;2.50;;;;;;;;;;4983278;28;20466;-68
2023/03/12 02:51:46;;;;;;;9.32;2.40;;;;;;;;;;4986999;28;20095;-68
2023/03/12 02:54:14;;;;;;;5.07;2.17;;;;;;;;;;4965522;28;20053;-68
2023/03/12 02:56:42;;;;;;;6.43;2.50;;;;;;;;;;4987839;28;20046;-69
2023/03/12 02:59:09;;;;;;;7.72;2.53;;;;;;;;;;4987499;28;20633;-69
2023/03/12 03:01:38;;;;;;;7.05;2.90;;;;;;;;;;4986864;28;20069;-69
2023/03/12 03:04:06;;;;;;;11.55;3.45;;;;;;;;;;4988561;28;20089;-68
2023/03/12 03:06:34;;;;;;;9.35;3.25;;;;;;;;;;4985992;28;20528;-68
2023/03/12 03:09:01;;;;;;;11.77;4.40;;;;;;;;;;4985762;28;20046;-68
2023/03/12 03:11:28;;;;;;;5.97;3.05;;;;;;;;;;4971853;28;20050;-68
2023/03/12 03:13:56;;;;;;;7.32;3.20;;;;;;;;;;4987517;28;20061;-68
2023/03/12 03:16:23;;;;;;;11.35;3.15;;;;;;;;;;4985914;28;20056;-68
2023/03/12 03:18:52;;;;;;;5.82;2.30;;;;;;;;;;4983058;28;20058;-68
2023/03/12 03:21:19;;;;;;;8.95;2.35;;;;;;;;;;4984301;28;20054;-69
2023/03/12 03:23:49;;;;;;;7.03;2.45;;;;;;;;;;4971574;28;20050;-68
2023/03/12 03:26:17;;;;;;;8.07;2.58;;;;;;;;;;4981659;28;20058;-68
2023/03/12 03:28:44;;;;;;;8.60;2.40;;;;;;;;;;4978990;28;20393;-68
2023/03/12 03:31:11;;;;;;;6.65;2.35;;;;;;;;;;4980473;28;20069;-69
2023/03/12 03:33:39;;;;;;;7.20;2.83;;;;;;;;;;4980583;28;20046;-68
2023/03/12 03:36:09;;;;;;;7.40;2.75;;;;;;;;;;4985765;28;20041;-68
2023/03/12 03:38:37;;;;;;;5.45;2.50;;;;;;;;;;4970009;28;20100;-68
2023/03/12 03:41:04;;;;;;;5.90;2.50;;;;;;;;;;4980772;28;20061;-68
2023/03/12 03:43:31;;;;;;;3.72;2.30;;;;;;;;;;4987334;28;20054;-68
2023/03/12 03:45:59;;;;;;;8.00;3.03;;;;;;;;;;4987517;28;20046;-68
2023/03/12 03:48:26;;;;;;;7.22;3.00;;;;;;;;;;4986238;28;20057;-68
2023/03/12 03:50:53;;;;;;;8.52;2.33;;;;;;;;;;4988723;28;20052;-68
2023/03/12 03:53:22;;;;;;;9.05;2.67;;;;;;;;;;4978744;28;20065;-68
2023/03/12 03:55:49;;;;;;;8.00;2.80;;;;;;;;;;4983258;28;20050;-68
2023/03/12 03:58:16;;;;;;;6.20;2.67;;;;;;;;;;4985570;28;20501;-68
2023/03/12 04:00:45;;;;;;;8.10;2.35;;;;;;;;;;4986279;28;20365;-68
2023/03/12 04:03:12;;;;;;;10.43;2.83;;;;;;;;;;4982569;28;20057;-68
2023/03/12 04:05:43;;;;;;;10.90;3.22;;;;;;;;;;4985316;28;20050;-69
2023/03/12 04:08:11;;;;;;;9.98;2.70;;;;;;;;;;4986051;28;20394;-68
2023/03/12 04:10:39;;;;;;;12.55;2.97;;;;;;;;;;4968926;28;20486;-68
2023/03/12 04:13:07;;;;;;;8.15;3.03;;;;;;;;;;4987553;28;20069;-68
2023/03/12 04:15:34;;;;;;;8.27;3.20;;;;;;;;;;4982757;28;20093;-68
2023/03/12 04:18:01;;;;;;;6.63;2.78;;;;;;;;;;4986692;28;20054;-68
2023/03/12 04:20:28;;;;;;;8.50;2.72;;;;;;;;;;4978436;28;20054;-68
2023/03/12 04:22:57;;;;;;;8.93;2.90;;;;;;;;;;4986275;28;20050;-69
2023/03/12 04:25:24;;;;;;;7.07;2.58;;;;;;;;;;4982797;28;20091;-68
2023/03/12 04:27:53;;;;;;;7.80;2.53;;;;;;;;;;4988004;28;20058;-69
2023/03/12 04:30:20;;;;;;;7.20;2.90;;;;;;;;;;4985028;28;20046;-68
2023/03/12 04:32:47;;;;;;;9.20;2.92;;;;;;;;;;4981236;28;20050;-68
2023/03/12 04:35:15;;;;;;;7.32;2.95;;;;;;;;;;4980807;28;20050;-68
2023/03/12 04:37:42;;;;;;;8.23;3.08;;;;;;;;;;4983277;28;20050;-68
2023/03/12 04:40:11;;;;;;;7.10;2.88;;;;;;;;;;4983125;28;20057;-68
2023/03/12 04:42:38;;;;;;;6.97;3.05;;;;;;;;;;4985837;28;20058;-69
2023/03/12 04:45:07;;;;;;;7.57;2.75;;;;;;;;;;4983208;28;20069;-68
2023/03/12 04:47:35;;;;;;;11.90;3.03;;;;;;;;;;4986630;28;20056;-69
2023/03/12 04:50:02;;;;;;;9.95;2.85;;;;;;;;;;4985531;28;20061;-69
2023/03/12 04:52:29;;;;;;;6.80;2.53;;;;;;;;;;4984445;28;20383;-68
2023/03/12 04:54:58;;;;;;;6.70;2.92;;;;;;;;;;4984455;28;20108;-69
2023/03/12 04:57:25;;;;;;;9.23;3.00;;;;;;;;;;4986737;28;20043;-69
2023/03/12 04:59:52;;;;;;;7.50;2.72;;;;;;;;;;4970705;28;20054;-68
2023/03/12 05:02:21;;;;;;;7.97;2.67;;;;;;;;;;4982189;28;20496;-68
2023/03/12 05:04:48;;;;;;;10.05;3.10;;;;;;;;;;4980830;28;20054;-69
2023/03/12 05:07:15;;;;;;;11.45;2.70;;;;;;;;;;4968749;28;20061;-68
2023/03/12 05:09:45;;;;;;;10.95;2.42;;;;;;;;;;4966621;28;20062;-69
2023/03/12 05:12:12;;;;;;;8.50;2.78;;;;;;;;;;4982961;28;20517;-68
2023/03/12 05:14:39;;;;;;;8.38;2.70;;;;;;;;;;4988744;28;20050;-68
2023/03/12 05:17:06;;;;;;;10.98;3.13;;;;;;;;;;4970435;28;20062;-69
2023/03/12 05:19:35;;;;;;;6.07;2.67;;;;;;;;;;4989920;28;20050;-68
2023/03/12 05:22:02;;;;;;;7.13;2.55;;;;;;;;;;4979536;28;20065;-69
2023/03/12 05:24:30;;;;;;;14.75;3.15;;;;;;;;;;4988210;28;20096;-69
2023/03/12 05:26:57;;;;;;;6.00;2.65;;;;;;;;;;4982266;28;20062;-69
2023/03/12 05:29:24;;;;;;;7.97;2.60;;;;;;;;;;4981497;28;20058;-68
2023/03/12 05:31:51;;;;;;;9.25;3.10;;;;;;;;;;4985950;28;20054;-69
2023/03/12 05:34:19;;;;;;;9.73;2.80;;;;;;;;;;4971840;28;20050;-69
2023/03/12 05:36:47;;;;;;;8.10;2.90;;;;;;;;;;4980635;28;20130;-69
2023/03/12 05:39:15;;;;;;;6.57;2.72;;;;;;;;;;4989135;28;20675;-68
2023/03/12 05:41:42;;;;;;;8.52;3.25;;;;;;;;;;4964535;28;20072;-68
2023/03/12 05:44:11;;;;;;;14.30;3.20;;;;;;;;;;4984463;28;20047;-68
2023/03/12 05:46:38;;;;;;;6.68;3.20;;;;;;;;;;4972742;28;20069;-68
2023/03/12 05:49:05;;;;;;;9.75;2.83;;;;;;;;;;4976773;28;20688;-69
2023/03/12 05:51:32;;;;;;;6.40;2.90;;;;;;;;;;4986948;28;20061;-68
2023/03/12 05:54:01;;;;;;;9.38;2.72;;;;;;;;;;4988897;28;20050;-68
2023/03/12 05:56:29;;;;;;;8.90;3.53;;;;;;;;;;4990730;28;20055;-69
2023/03/12 05:58:56;;;;;;;10.60;3.13;;;;;;;;;;4986041;28;20050;-68
2023/03/12 06:01:24;;;;;;;8.70;3.80;;;;;;;;;;4978893;28;20062;-69
2023/03/12 06:03:51;;;;;;;10.38;3.35;;;;;;;;;;4988713;28;20051;-68
2023/03/12 06:06:19;;;;;;;8.82;3.30;;;;;;;;;;4982278;28;20454;-68
2023/03/12 06:08:46;;;;;;;7.43;2.90;;;;;;;;;;4981318;28;20069;-69
2023/03/12 06:11:15;;;;;;;5.88;2.80;;;;;;;;;;4982092;28;20054;-68
2023/03/12 06:13:42;;;;;;;8.10;3.30;;;;;;;;;;4983845;28;20053;-69
2023/03/12 06:16:11;;;;;;;11.57;3.10;;;;;;;;;;4966271;28;20058;-69
2023/03/12 06:18:38;;;;;;;7.50;2.92;;;;;;;;;;4980610;28;20052;-68
2023/03/12 06:21:09;;;;;;;12.38;3.25;;;;;;;;;;4988270;28;20047;-69
2023/03/12 06:23:37;;;;;;;13.57;3.17;;;;;;;;;;4989012;28;20054;-68
2023/03/12 06:26:05;;;;;;;10.68;3.97;;;;;;;;;;4984144;28;20481;-68
2023/03/12 06:28:33;;;;;;;8.18;3.70;;;;;;;;;;4986771;28;20081;-69
2023/03/12 06:31:01;;;;;;;6.22;2.70;;;;;;;;;;4981095;28;20065;-68
2023/03/12 06:33:28;;;;;;;10.70;3.10;;;;;;;;;;4984327;28;20058;-69
2023/03/12 06:35:56;;;;;;;9.30;3.13;;;;;;;;;;4989788;28;20058;-69
2023/03/12 06:38:23;;;;;;;10.40;3.13;;;;;;;;;;4990762;28;20061;-68
2023/03/12 06:40:55;;;;;;;10.10;3.55;;;;;;;;;;4983276;28;20054;-69
2023/03/12 06:43:22;;;;;;;12.80;3.08;;;;;;;;;;4981532;28;20489;-68
2023/03/12 06:45:51;;;;;;;9.43;3.03;;;;;;;;;;4982192;28;20047;-68
2023/03/12 06:48:18;;;;;;;14.10;3.70;;;;;;;;;;4976894;28;20049;-68
2023/03/12 06:50:45;;;;;;;8.88;3.42;;;;;;;;;;4983298;28;20054;-69
2023/03/12 06:53:12;;;;;;;13.20;3.63;;;;;;;;;;4978520;28;20518;-68
2023/03/12 06:55:40;;;;;;;8.50;3.40;;;;;;;;;;4983168;28;20057;-69
2023/03/12 06:58:07;;;;;;;10.63;3.17;;;;;;;;;;4970935;28;20042;-68
2023/03/12 07:00:34;;;;;;;9.77;3.50;;;;;;;;;;4970550;28;20054;-69
2023/03/12 07:03:03;;;;;;;10.50;3.80;;;;;;;;;;4987343;28;20051;-69
2023/03/12 07:05:30;;;;;;;7.85;3.60;;;;;;;;;;4989349;28;20054;-69
2023/03/12 07:07:57;;;;;;;10.75;4.00;;;;;;;;;;4986289;28;20057;-69
2023/03/12 07:10:26;;;;;;;9.90;4.00;;;;;;;;;;4986232;28;20050;-68
2023/03/12 07:12:54;;;;;;;7.68;3.78;;;;;;;;;;4986555;28;20057;-69
2023/03/12 07:15:22;;;;;;;11.25;4.25;;;;;;;;;;4986790;28;20113;-69
2023/03/12 07:17:49;;;;;;;8.90;3.85;;;;;;;;;;4985449;28;20238;-69
2023/03/12 07:20:18;;;;;;;10.45;4.55;;;;;;;;;;4984964;28;20054;-69
2023/03/12 07:22:45;;;;;;;15.23;4.60;;;;;;;;;;4983784;28;20537;-69
2023/03/12 07:25:13;;;;;;;13.13;5.15;;;;;;;;;;4983348;28;20050;-69
2023/03/12 07:27:40;;;;;;;12.43;5.15;;;;;;;;;;4983243;28;20051;-69
2023/03/12 07:30:08;;;;;;;13.93;5.80;;;;;;;;;;4986270;28;20703;-69
2023/03/12 07:32:35;;;;;;;17.02;6.00;;;;;;;;;;4984578;28;20142;-68
2023/03/12 07:35:03;;;;;;;16.65;5.72;;;;;;;;;;4987676;28;20050;-69
2023/03/12 07:37:31;;;;;;;14.40;6.85;;;;;;;;;;4982795;28;20474;-69
2023/03/12 07:39:59;;;;;;;17.65;6.40;;;;;;;;;;4983447;28;20058;-69
2023/03/12 07:42:26;;;;;;;14.60;7.03;;;;;;;;;;4985218;28;20524;-69
2023/03/12 07:44:53;;;;;;;12.23;5.55;;;;;;;;;;4986005;28;20751;-68
2023/03/12 07:47:20;;;;;;;21.13;6.50;;;;;;;;;;4984398;28;20050;-68
2023/03/12 07:49:47;;;;;;;16.67;6.20;;;;;;;;;;4979802;28;20051;-69
2023/03/12 07:52:16;;;;;;;12.02;5.60;;;;;;;;;;4981046;28;20130;-69
2023/03/12 07:54:45;;;;;;;11.75;5.55;;;;;;;;;;4983930;28;20061;-69
2023/03/12 07:57:13;;;;;;;17.13;5.90;;;;;;;;;;4984305;28;20133;-68
2023/03/12 07:59:40;;;;;;;13.20;6.47;;;;;;;;;;4985426;28;20102;-68
2023/03/12 08:02:07;;;;;;;15.27;6.07;;;;;;;;;;4982696;28;20524;-69
2023/03/12 08:04:34;;;;;;;15.80;6.28;;;;;;;;;;4982763;28;20054;-69
2023/03/12 08:07:02;;;;;;;14.20;6.45;;;;;;;;;;4985586;28;20061;-69
2023/03/12 08:09:31;;;;;;;17.42;6.47;;;;;;;;;;4975072;28;20129;-69
2023/03/12 08:11:59;;;;;;;18.10;6.90;;;;;;;;;;4980936;28;20061;-69
2023/03/12 08:14:30;;;;;;;13.90;6.97;;;;;;;;;;4981029;28;20064;-69
2023/03/12 08:16:57;;;;;;;16.25;6.40;;;;;;;;;;4961549;28;20061;-69
2023/03/12 08:19:25;;;;;;;15.20;7.07;;;;;;;;;;4974053;28;20058;-69
2023/03/12 08:21:52;;;;;;;17.45;7.70;;;;;;;;;;4982503;28;20049;-69
2023/03/12 08:24:20;;;;;;;16.75;7.60;;;;;;;;;;4987080;28;20054;-69
2023/03/12 08:26:47;;;;;;;13.38;6.53;;;;;;;;;;4976118;28;20050;-69
2023/03/12 08:29:16;;;;;;;18.77;7.10;;;;;;;;;;4987192;28;20478;-69
2023/03/12 08:31:43;;;;;;;16.42;7.20;;;;;;;;;;4980151;28;20077;-69
2023/03/12 08:34:11;;;;;;;16.77;7.25;;;;;;;;;;4987991;28;20062;-69
2023/03/12 08:36:38;;;;;;;16.55;7.85;;;;;;;;;;4986618;28;20062;-69
2023/03/12 08:39:06;;;;;;;20.83;8.23;;;;;;;;;;4985838;28;20580;-69
2023/03/12 08:41:33;;;;;;;13.07;7.47;;;;;;;;;;4978263;28;20054;-69
2023/03/12 08:44:00;;;;;;;20.17;7.47;;;;;;;;;;4959852;28;20490;-68
2023/03/12 08:46:29;;;;;;;12.80;7.53;;;;;;;;;;4981009;28;20054;-69
2023/03/12 08:48:56;;;;;;;19.95;8.13;;;;;;;;;;4991487;28;20051;-69
2023/03/12 08:51:24;;;;;;;17.75;7.15;;;;;;;;;;4992401;28;20077;-68
2023/03/12 08:53:51;;;;;;;19.38;7.95;;;;;;;;;;4992021;28;20057;-68
2023/03/12 08:56:18;;;;;;;16.15;7.90;;;;;;;;;;4984897;28;20097;-68
2023/03/12 08:58:46;;;;;;;20.63;7.40;;;;;;;;;;4989275;28;20386;-68
2023/03/12 09:01:14;;;;;;;13.60;7.30;;;;;;;;;;4989538;28;20057;-68
2023/03/12 09:03:43;;;;;;;12.93;7.65;;;;;;;;;;4984411;28;20812;-69
2023/03/12 09:06:12;;;;;;;16.05;7.40;;;;;;;;;;4984466;28;20061;-69
2023/03/12 09:08:39;;;;;;;16.13;7.68;;;;;;;;;;4993234;28;20863;-69
2023/03/12 09:11:07;;;;;;;18.58;8.80;;;;;;;;;;4986646;28;20066;-69
2023/03/12 09:13:35;;;;;;;14.88;8.38;;;;;;;;;;4985692;28;20054;-69
2023/03/12 09:16:03;;;;;;;10.32;7.28;;;;;;;;;;4988221;28;20046;-69
2023/03/12 09:18:30;;;;;;;16.13;8.63;;;;;;;;;;4970598;28;20137;-69
2023/03/12 09:20:59;;;;;;;13.73;7.00;;;;;;;;;;4989720;28;20113;-69
2023/03/12 09:23:27;;;;;;;17.35;7.97;;;;;;;;;;4983971;28;20050;-69
2023/03/12 09:25:54;;;;;;;16.15;8.48;;;;;;;;;;4988814;28;20054;-69
2023/03/12 09:28:22;;;;;;;15.48;8.40;;;;;;;;;;4987466;28;20042;-69
2023/03/12 09:30:50;;;;;;;18.27;8.18;;;;;;;;;;4987520;28;20401;-69
2023/03/12 09:33:18;;;;;;;18.35;9.23;;;;;;;;;;4986422;28;20043;-69
2023/03/12 09:35:45;;;;;;;17.02;9.23;;;;;;;;;;4989754;28;20046;-69
2023/03/12 09:38:16;;;;;;;20.35;10.05;;;;;;;;;;4986564;28;20140;-69
2023/03/12 09:40:46;;;;;;;17.80;8.88;;;;;;;;;;4967580;28;20403;-69
2023/03/12 09:43:18;;;;;;;16.13;9.77;;;;;;;;;;4986971;28;20050;-69
2023/03/12 09:45:46;;;;;;;18.95;10.32;;;;;;;;;;4979277;28;20821;-69
2023/03/12 09:48:16;;;;;;;20.48;10.75;;;;;;;;;;4960242;28;20054;-69
2023/03/12 09:50:46;;;;;;;17.55;9.93;;;;;;;;;;4968810;28;20169;-69
2023/03/12 09:53:18;;;;;;;19.15;10.52;;;;;;;;;;4984788;28;20054;-69
2023/03/12 09:55:48;;;;;;;19.05;10.18;;;;;;;;;;4983682;28;20046;-69
2023/03/12 09:58:19;;;;;;;20.42;11.43;;;;;;;;;;4982368;28;20512;-69
2023/03/12 10:00:46;;;;;;;19.98;10.35;;;;;;;;;;4988158;28;20054;-69
2023/03/12 10:03:23;;;;;;;16.42;10.73;;;;;;;;;;4980220;28;20050;-69
2023/03/12 10:06:02;;;;;;;19.40;10.43;;;;;;;;;;4970210;28;20092;-70
2023/03/12 10:08:34;;;;;;;18.92;10.68;;;;;;;;;;4987453;28;20101;-69
2023/03/12 10:11:06;;;;;;;16.10;10.02;;;;;;;;;;4988456;28;20042;-69
2023/03/12 10:13:41;;;;;;;22.83;11.98;;;;;;;;;;4990927;28;20113;-69
2023/03/12 10:16:13;;;;;;;18.77;12.07;;;;;;;;;;4994428;28;20046;-69
2023/03/12 10:18:51;;;;;;;23.00;12.75;;;;;;;;;;4987272;28;20094;-69
2023/03/12 10:21:21;;;;;;;25.02;13.25;;;;;;;;;;4984379;28;21205;-69
2023/03/12 10:23:53;;;;;;;32.28;14.25;;;;;;;;;;4988379;28;20054;-69
2023/03/12 10:26:24;;;;;;;26.65;14.27;;;;;;;;;;4989169;28;20106;-69
2023/03/12 10:28:54;;;;;;;26.38;13.32;;;;;;;;;;4987493;28;20084;-69
2023/03/12 10:31:25;;;;;;;31.05;13.43;;;;;;;;;;4985848;28;20055;-69
2023/03/12 10:33:53;;;;;;;24.02;12.88;;;;;;;;;;4984182;28;20082;-69
2023/03/12 10:36:22;;;;;;;27.40;14.93;;;;;;;;;;4984120;28;20065;-68
2023/03/12 10:38:49;;;;;;;26.30;15.98;;;;;;;;;;4969401;28;20054;-68
2023/03/12 10:41:17;;;;;;;30.83;16.10;;;;;;;;;;4961976;28;20050;-68
2023/03/12 10:43:46;;;;;;;27.23;15.80;;;;;;;;;;4984563;28;20524;-68
2023/03/12 10:46:27;;;;;;;40.88;19.00;;;;;;;;;;4986529;28;20496;-68
2023/03/12 10:49:23;;;;;;;33.13;17.85;;;;;;;;;;4985860;28;20092;-68
2023/03/12 10:51:55;;;;;;;33.72;18.67;;;;;;;;;;4985349;28;20405;-68
2023/03/12 10:54:22;;;;;;;37.55;18.67;;;;;;;;;;4970295;28;20101;-68
2023/03/12 10:56:50;;;;;;;38.95;20.98;;;;;;;;;;4980843;28;20058;-68
2023/03/12 10:59:22;;;;;;;42.95;21.48;;;;;;;;;;4986774;28;20057;-68
2023/03/12 11:01:51;;;;;;;39.88;21.80;;;;;;;;;;4983283;28;20083;-68
2023/03/12 11:04:19;;;;;;;42.03;21.88;;;;;;;;;;4988167;28;20421;-68
2023/03/12 11:07:03;;;;;;;39.92;22.90;;;;;;;;;;4986827;28;20054;-68
2023/03/12 11:09:31;;;;;;;53.90;25.98;;;;;;;;;;4976775;28;20054;-68
2023/03/12 11:11:58;;;;;;;49.45;23.90;;;;;;;;;;4989345;28;20050;-68
2023/03/12 11:14:27;;;;;;;59.95;29.85;;;;;;;;;;4977281;28;20090;-68
2023/03/12 11:16:55;;;;;;;60.90;27.83;;;;;;;;;;4971942;28;20064;-68
2023/03/12 11:19:30;;;;;;;65.88;29.15;;;;;;;;;;4985043;28;20147;-67
2023/03/12 11:21:59;;;;;;;68.60;31.27;;;;;;;;;;4987527;28;20052;-67
2023/03/12 11:24:26;;;;;;;64.10;29.75;;;;;;;;;;4979910;28;20085;-67
2023/03/12 11:26:55;;;;;;;78.90;31.77;;;;;;;;;;4985917;28;20478;-67
2023/03/12 11:29:29;;;;;;;69.13;30.40;;;;;;;;;;4979548;28;20054;-67
2023/03/12 11:32:01;;;;;;;70.93;31.38;;;;;;;;;;4983769;28;20050;-67
2023/03/12 11:34:31;;;;;;;73.03;31.10;;;;;;;;;;4984113;28;20051;-67
2023/03/12 11:37:04;;;;;;;75.75;31.55;;;;;;;;;;4985357;28;20128;-67
2023/03/12 11:39:36;;;;;;;79.50;32.67;;;;;;;;;;4981738;28;20078;-67
2023/03/12 11:42:11;;;;;;;79.85;34.28;;;;;;;;;;4988897;28;20054;-67
2023/03/12 11:44:43;;;;;;;82.80;32.35;;;;;;;;;;4982141;28;20051;-67
2023/03/12 11:47:20;;;;;;;76.80;31.10;;;;;;;;;;4984896;28;20081;-67
2023/03/12 11:49:57;;;;;;;87.25;32.40;;;;;;;;;;4983597;28;20051;-67
2023/03/12 11:52:29;;;;;;;80.28;30.60;;;;;;;;;;4985559;28;20051;-67
2023/03/12 11:55:06;;;;;;;94.15;31.42;;;;;;;;;;4978525;28;20490;-67
2023/03/12 11:57:40;;;;;;;84.50;28.92;;;;;;;;;;4964591;28;20055;-67
2023/03/12 12:00:13;;;;;;;86.40;29.23;;;;;;;;;;4986517;28;20069;-67
2023/03/12 12:02:50;;;;;;;84.13;26.27;;;;;;;;;;4984872;28;20516;-66
2023/03/12 12:05:28;;;;;;;76.45;19.75;;;;;;;;;;4988476;28;20074;-67
2023/03/12 12:08:05;;;;;;;82.80;21.85;;;;;;;;;;4985864;28;20102;-67
2023/03/12 12:10:37;;;;;;;73.35;18.77;;;;;;;;;;4964760;28;20047;-67
2023/03/12 12:13:08;;;;;;;90.55;21.20;;;;;;;;;;4985574;28;20094;-67
2023/03/12 12:15:40;;;;;;;86.32;18.10;;;;;;;;;;4982930;28;20514;-67
2023/03/12 12:18:18;;;;;;;73.97;16.83;;;;;;;;;;4981174;28;20046;-67
2023/03/12 12:20:49;;;;;;;61.90;14.90;;;;;;;;;;4983189;28;20058;-67
2023/03/12 12:23:17;;;;;;;84.15;15.80;;;;;;;;;;4988125;28;20050;-67
2023/03/12 12:26:00;;;;;;;54.80;13.45;;;;;;;;;;4986053;28;20089;-67
2023/03/12 12:28:35;;;;;;;58.53;11.75;;;;;;;;;;4968775;28;20054;-67
2023/03/12 12:31:21;;;;;;;53.53;10.73;;;;;;;;;;4967042;28;20054;-67
2023/03/12 12:33:55;;;;;;;55.80;9.13;;;;;;;;;;4983148;28;20042;-67
2023/03/12 12:36:25;;;;;;;49.85;7.50;;;;;;;;;;4987357;28;20058;-67
2023/03/12 12:38:54;;;;;;;58.30;8.23;;;;;;;;;;4987847;28;20511;-67
2023/03/12 12:41:24;;;;;;;37.33;6.65;;;;;;;;;;4984078;28;20051;-67
2023/03/12 12:43:54;;;;;;;43.50;5.68;;;;;;;;;;4986581;28;20077;-67
2023/03/12 12:46:26;;;;;;;49.92;6.18;;;;;;;;;;4982771;28;20039;-67
2023/03/12 12:48:54;;;;;;;46.88;7.50;;;;;;;;;;4961136;28;20050;-67
2023/03/12 12:51:23;;;;;;;37.80;5.70;;;;;;;;;;4982806;28;20073;-67
2023/03/12 12:53:54;;;;;;;41.97;5.63;;;;;;;;;;4978189;28;20054;-67
2023/03/12 12:56:24;;;;;;;33.47;6.05;;;;;;;;;;4978631;28;20054;-67
2023/03/12 12:58:56;;;;;;;36.58;5.00;;;;;;;;;;4969237;28;20056;-67
2023/03/12 13:01:26;;;;;;;26.17;4.13;;;;;;;;;;4981095;28;20092;-67
2023/03/12 13:03:56;;;;;;;33.05;5.57;;;;;;;;;;4967835;28;20485;-67
2023/03/12 13:06:28;;;;;;;38.55;5.78;;;;;;;;;;4985524;28;20059;-67
2023/03/12 13:09:00;;;;;;;40.13;5.25;;;;;;;;;;4961495;28;20063;-67
2023/03/12 13:11:32;;;;;;;42.65;5.50;;;;;;;;;;4985013;28;20054;-67
2023/03/12 13:14:18;;;;;;;38.92;5.43;;;;;;;;;;4985603;28;20068;-67
2023/03/12 13:16:47;;;;;;;40.97;5.13;;;;;;;;;;4984858;28;20050;-67
2023/03/12 13:19:26;;;;;;;43.45;5.93;;;;;;;;;;4982280;28;20054;-67
2023/03/12 13:21:58;;;;;;;42.88;6.18;;;;;;;;;;4985593;28;20054;-67
2023/03/12 13:24:29;;;;;;;39.38;6.22;;;;;;;;;;4981579;28;20081;-67
2023/03/12 13:26:59;;;;;;;39.97;5.70;;;;;;;;;;4986639;28;20517;-68
2023/03/12 13:29:37;;;;;;;39.42;5.57;;;;;;;;;;4983519;28;20050;-69
2023/03/12 13:32:07;;;;;;;44.63;5.88;;;;;;;;;;4981930;28;20050;-69
2023/03/12 13:34:52;;;;;;;42.80;6.50;;;;;;;;;;4985558;28;20050;-69
2023/03/12 13:37:24;;;;;;;39.25;5.38;;;;;;;;;;4990034;28;20137;-69
2023/03/12 13:39:52;;;;;;;40.50;5.57;;;;;;;;;;4990244;28;20057;-69
2023/03/12 13:42:43;;;;;;;37.95;5.35;;;;;;;;;;4985070;28;20557;-68
2023/03/12 13:45:27;;;;;;;38.85;5.78;;;;;;;;;;4968736;28;20042;-69
2023/03/12 13:47:58;;;;;;;34.83;5.10;;;;;;;;;;4983929;28;20042;-69
2023/03/12 13:50:26;;;;;;;39.80;6.75;;;;;;;;;;4984804;28;20057;-69
2023/03/12 13:53:01;;;;;;;44.15;6.55;;;;;;;;;;4989336;28;20053;-69
2023/03/12 13:55:29;;;;;;;37.20;5.05;;;;;;;;;;4985763;28;20643;-69
2023/03/12 13:57:59;;;;;;;35.05;5.63;;;;;;;;;;4989338;28;20053;-69
2023/03/12 14:00:27;;;;;;;46.70;5.53;;;;;;;;;;4989298;28;20053;-69
2023/03/12 14:02:59;;;;;;;49.17;6.95;;;;;;;;;;4990026;28;20062;-69
2023/03/12 14:05:27;;;;;;;42.83;6.53;;;;;;;;;;4990087;28;20050;-69
2023/03/12 14:07:58;;;;;;;39.17;6.57;;;;;;;;;;4989616;28;20164;-69
2023/03/12 14:10:30;;;;;;;39.10;6.30;;;;;;;;;;4989995;28;20046;-69
2023/03/12 14:13:01;;;;;;;31.45;5.80;;;;;;;;;;4985498;28;20081;-69
2023/03/12 14:15:32;;;;;;;33.88;6.20;;;;;;;;;;4987104;28;20105;-69
2023/03/12 14:18:02;;;;;;;38.15;6.10;;;;;;;;;;4987327;28;20501;-69
2023/03/12 14:20:30;;;;;;;34.65;5.38;;;;;;;;;;4971224;28;20413;-69
2023/03/12 14:22:59;;;;;;;36.67;6.13;;;;;;;;;;4970554;28;20470;-69
2023/03/12 14:25:32;;;;;;;49.38;7.25;;;;;;;;;;4973806;28;20058;-70
2023/03/12 14:27:59;;;;;;;44.50;7.53;;;;;;;;;;4988045;28;20050;-69
2023/03/12 14:30:31;;;;;;;42.60;6.68;;;;;;;;;;4990932;28;20141;-69
2023/03/12 14:33:03;;;;;;;40.78;6.10;;;;;;;;;;4982151;28;20485;-69
2023/03/12 14:35:33;;;;;;;43.08;6.13;;;;;;;;;;4970268;28;20061;-69
2023/03/12 14:38:04;;;;;;;42.85;6.32;;;;;;;;;;4966734;28;20060;-69
2023/03/12 14:40:37;;;;;;;44.67;6.47;;;;;;;;;;4965045;28;20063;-70
2023/03/12 14:43:19;;;;;;;43.60;6.65;;;;;;;;;;4986086;28;20084;-69
2023/03/12 14:45:46;;;;;;;43.50;7.25;;;;;;;;;;4988030;28;20050;-69